Terminal Aerodrome Forecast
Issued by NWS Salt Lake City, UT

Home | Current Version | Previous Version | Text Only | Print | Product List | Glossary On
Versions: 1 2 3 4 5 6 7 8 9 10 11 12 13 14 15 16
000
FTUS45 KSLC 302333
TAFCDC
TAF
KCDC 302333Z 3100/3124 23012G20KT P6SM VCTS SCT090CB BKN110
      TEMPO 3100/3102 27012G22KT -TSRA SCT080CB BKN110
     FM310400 12008KT P6SM VCSH SCT110 BKN150
     FM310900 17006KT P6SM FEW080 BKN150
     FM311500 22007KT P6SM FEW150
     FM311900 25012KT P6SM VCTS SCT090CB BKN110=

USA.gov is the U.S. government's official web portal to all federal, state and local government web resources and services.